Terminal Aerodrome Forecast
Issued by NWS Northern Indiana

Home | Current Version | Previous Version | Graphics & Text | Print | Product List | Glossary On
Versions: 1 2 3 4 5 6 7 8 9 10 11 12 13 14
000
FTUS43 KIWX 272300
TAFFWA
TAF
KFWA 272323Z 2800/2824 21011KT P6SM BKN120
      TEMPO 2800/2803 6SM -TSRA BKN050CB
     FM281000 22013KT 5SM -SHRA VCTS OVC025CB
     FM281700 26014G20KT P6SM SCT045=

USA.gov is the U.S. government's official web portal to all federal, state and local government web resources and services.